Aérodrome :
LOGIN :

S'inscrire | Disclaimer

   EN    FR    IT 

 










Légende :    VFR   VFR Marginal   IFR   IFR Intensif   IFR Très Intensif
Visi : 
Plafond : 
>= 8 km
>= 3000ft
5 à 8 km
1000 à 3000 ft
1500m à 5 km
500 à 1000 ft
800 à 1500m
200 à 500 ft
< 800m
< 200 ft
Symboles :   Orages  Brouillard  Fortes neiges  Fortes précipitations  Vent > 20 kt
SIGMETs :   Divers  Orages  Givrage  Turbulence  Onde Orograph.  Cendres Volcan.







- Altitude de l'aérodrome : 230 ft


ETHB - Buckeburg Army

DERNIER METAR :
  • 241234Z 30005KT 9999 -RA FEW008 SCT011 BKN023 07/07 Q1009 WHT BLU TEMPO YLO

METARs EXPIRÉS :
  • 241220Z 30004KT 9999 -RA FEW008 BKN011 BKN023 07/06 Q1009 GRN BLU TEMPO YLO
  • 241120Z 26004KT 9999 FEW008 BKN019 08/06 Q1008 WHT BLU TEMPO YLO
  • 241020Z VRB02KT 9999 FEW008 BKN017 07/06 Q1008 WHT BLU TEMPO YLO
  • 240945Z 33003KT 9999 SCT011 BKN019 BKN050 07/06 Q1008 WHT BLU TEMPO YLO

TAF AMD TAF ETHB
Valide du 24 à 09h jusqu'au 24 à 18h UTC


241212Z 2409/2418 26005KT 8000 -RA SCT005 BKN025
TEMPO 2409/2413 36004KT 2000 RADZ BKN005 CANCEL 1230
Pas de NOTAMs connus pour ce terrain.



MET'MAP, la Météo Aéronautique d'un coup d'oeil ! - Copyright ORBIFLY Décembre 2007 - Disclaimer

ORBIFLY MET'MAP TEAM :

Programmation & Développement : Alexandra Zaïnal
Conception & Développement : Baudouin d'Aumeries
Co-Programmation & Développement : Marc-Olivier Méhu
Soutien technique & logistique : Manuel Goepfert

Contact : metmap@orbifly.com




SOURCES & CREDITS :

   NOAA